sensor_id;sensor_type;location;lat;lon;timestamp;P1;durP1;ratioP1;P2;durP2;ratioP2
40459;SDS011;26164;51.138;16.952;2022-11-20T00:02:06;67.38;;;28.05;;
40459;SDS011;26164;51.138;16.952;2022-11-20T00:04:38;64.15;;;24.88;;
40459;SDS011;26164;51.138;16.952;2022-11-20T00:07:18;66.82;;;26.52;;
40459;SDS011;26164;51.138;16.952;2022-11-20T00:09:58;68.75;;;25.50;;
40459;SDS011;26164;51.138;16.952;2022-11-20T00:12:52;66.47;;;26.33;;
40459;SDS011;26164;51.138;16.952;2022-11-20T00:15:23;73.35;;;27.65;;
40459;SDS011;26164;51.138;16.952;2022-11-20T00:17:56;73.15;;;28.75;;
40459;SDS011;26164;51.138;16.952;2022-11-20T00:20:25;69.05;;;27.98;;
40459;SDS011;26164;51.138;16.952;2022-11-20T00:23:07;73.82;;;27.83;;
40459;SDS011;26164;51.138;16.952;2022-11-20T00:25:45;75.13;;;28.92;;
40459;SDS011;26164;51.138;16.952;2022-11-20T00:28:24;75.70;;;29.88;;
40459;SDS011;26164;51.138;16.952;2022-11-20T00:31:03;76.35;;;28.02;;
40459;SDS011;26164;51.138;16.952;2022-11-20T00:33:51;72.35;;;28.42;;
40459;SDS011;26164;51.138;16.952;2022-11-20T00:37:05;51.53;;;21.98;;
40459;SDS011;26164;51.138;16.952;2022-11-20T00:40:32;68.97;;;25.98;;
40459;SDS011;26164;51.138;16.952;2022-11-20T00:44:05;66.55;;;25.67;;
40459;SDS011;26164;51.138;16.952;2022-11-20T00:46:52;60.28;;;23.52;;
40459;SDS011;26164;51.138;16.952;2022-11-20T00:49:49;62.05;;;24.77;;
40459;SDS011;26164;51.138;16.952;2022-11-20T00:52:33;61.15;;;24.70;;
40459;SDS011;26164;51.138;16.952;2022-11-20T00:55:03;66.47;;;25.75;;
40459;SDS011;26164;51.138;16.952;2022-11-20T00:57:37;66.28;;;26.02;;
40459;SDS011;26164;51.138;16.952;2022-11-20T01:02:39;71.05;;;27.65;;
40459;SDS011;26164;51.138;16.952;2022-11-20T01:05:17;67.22;;;26.73;;
40459;SDS011;26164;51.138;16.952;2022-11-20T01:08:06;74.57;;;28.77;;
40459;SDS011;26164;51.138;16.952;2022-11-20T01:10:34;73.22;;;27.77;;
40459;SDS011;26164;51.138;16.952;2022-11-20T01:13:11;59.53;;;23.67;;
40459;SDS011;26164;51.138;16.952;2022-11-20T01:16:39;71.20;;;27.50;;
40459;SDS011;26164;51.138;16.952;2022-11-20T01:23:23;71.43;;;27.50;;
40459;SDS011;26164;51.138;16.952;2022-11-20T01:26:19;64.35;;;27.73;;
40459;SDS011;26164;51.138;16.952;2022-11-20T01:29:20;70.28;;;27.15;;
40459;SDS011;26164;51.138;16.952;2022-11-20T01:32:08;68.38;;;27.55;;
40459;SDS011;26164;51.138;16.952;2022-11-20T01:34:40;69.72;;;27.40;;
40459;SDS011;26164;51.138;16.952;2022-11-20T01:37:20;72.57;;;28.13;;
40459;SDS011;26164;51.138;16.952;2022-11-20T01:40:28;76.38;;;27.65;;
40459;SDS011;26164;51.138;16.952;2022-11-20T01:43:09;71.83;;;27.37;;
40459;SDS011;26164;51.138;16.952;2022-11-20T01:50:24;54.15;;;20.85;;
40459;SDS011;26164;51.138;16.952;2022-11-20T01:57:43;68.88;;;25.60;;
40459;SDS011;26164;51.138;16.952;2022-11-20T02:00:50;70.43;;;27.58;;
40459;SDS011;26164;51.138;16.952;2022-11-20T02:04:38;61.60;;;23.58;;
40459;SDS011;26164;51.138;16.952;2022-11-20T02:07:59;66.72;;;24.38;;
40459;SDS011;26164;51.138;16.952;2022-11-20T02:11:13;68.05;;;25.10;;
40459;SDS011;26164;51.138;16.952;2022-11-20T02:13:50;64.15;;;24.48;;
40459;SDS011;26164;51.138;16.952;2022-11-20T02:17:09;66.10;;;25.38;;
40459;SDS011;26164;51.138;16.952;2022-11-20T02:20:11;65.55;;;25.55;;
40459;SDS011;26164;51.138;16.952;2022-11-20T02:26:44;66.28;;;26.20;;
40459;SDS011;26164;51.138;16.952;2022-11-20T02:29:34;67.32;;;25.60;;
40459;SDS011;26164;51.138;16.952;2022-11-20T02:32:23;71.03;;;25.42;;
40459;SDS011;26164;51.138;16.952;2022-11-20T02:38:06;65.88;;;26.20;;
40459;SDS011;26164;51.138;16.952;2022-11-20T02:40:54;70.28;;;24.27;;
40459;SDS011;26164;51.138;16.952;2022-11-20T02:43:32;62.95;;;23.60;;
40459;SDS011;26164;51.138;16.952;2022-11-20T02:46:16;62.13;;;23.73;;
40459;SDS011;26164;51.138;16.952;2022-11-20T02:49:26;56.80;;;22.48;;
40459;SDS011;26164;51.138;16.952;2022-11-20T02:52:41;59.58;;;23.33;;
40459;SDS011;26164;51.138;16.952;2022-11-20T02:55:20;64.88;;;23.77;;
40459;SDS011;26164;51.138;16.952;2022-11-20T02:57:51;64.33;;;24.20;;
40459;SDS011;26164;51.138;16.952;2022-11-20T03:00:25;63.28;;;25.58;;
40459;SDS011;26164;51.138;16.952;2022-11-20T03:03:11;65.93;;;24.50;;
40459;SDS011;26164;51.138;16.952;2022-11-20T03:05:58;61.22;;;23.58;;
40459;SDS011;26164;51.138;16.952;2022-11-20T03:08:54;65.57;;;23.08;;
40459;SDS011;26164;51.138;16.952;2022-11-20T03:11:28;58.50;;;22.88;;
40459;SDS011;26164;51.138;16.952;2022-11-20T03:14:01;58.28;;;21.60;;
40459;SDS011;26164;51.138;16.952;2022-11-20T03:16:31;58.53;;;22.58;;
40459;SDS011;26164;51.138;16.952;2022-11-20T03:19:00;55.97;;;21.98;;
40459;SDS011;26164;51.138;16.952;2022-11-20T03:21:27;53.70;;;21.15;;
40459;SDS011;26164;51.138;16.952;2022-11-20T03:23:53;60.28;;;22.77;;
40459;SDS011;26164;51.138;16.952;2022-11-20T03:26:26;57.03;;;21.88;;
40459;SDS011;26164;51.138;16.952;2022-11-20T03:28:57;52.30;;;21.85;;
40459;SDS011;26164;51.138;16.952;2022-11-20T03:31:29;53.92;;;20.90;;
40459;SDS011;26164;51.138;16.952;2022-11-20T03:34:06;56.83;;;22.25;;
40459;SDS011;26164;51.138;16.952;2022-11-20T03:36:33;51.50;;;20.13;;
40459;SDS011;26164;51.138;16.952;2022-11-20T03:38:59;57.70;;;21.58;;
40459;SDS011;26164;51.138;16.952;2022-11-20T03:41:27;53.10;;;21.00;;
40459;SDS011;26164;51.138;16.952;2022-11-20T03:43:56;49.60;;;21.88;;
40459;SDS011;26164;51.138;16.952;2022-11-20T03:46:27;48.42;;;19.77;;
40459;SDS011;26164;51.138;16.952;2022-11-20T03:49:06;54.40;;;21.48;;
40459;SDS011;26164;51.138;16.952;2022-11-20T03:51:48;48.33;;;19.20;;
40459;SDS011;26164;51.138;16.952;2022-11-20T03:54:28;52.85;;;21.13;;
40459;SDS011;26164;51.138;16.952;2022-11-20T03:57:19;50.92;;;21.70;;
40459;SDS011;26164;51.138;16.952;2022-11-20T04:00:12;53.75;;;21.10;;
40459;SDS011;26164;51.138;16.952;2022-11-20T04:02:39;53.03;;;21.42;;
40459;SDS011;26164;51.138;16.952;2022-11-20T04:05:05;51.20;;;20.52;;
40459;SDS011;26164;51.138;16.952;2022-11-20T04:07:31;54.30;;;20.85;;
40459;SDS011;26164;51.138;16.952;2022-11-20T04:09:59;50.05;;;20.65;;
40459;SDS011;26164;51.138;16.952;2022-11-20T04:12:25;55.00;;;21.25;;
40459;SDS011;26164;51.138;16.952;2022-11-20T04:14:54;53.60;;;20.90;;
40459;SDS011;26164;51.138;16.952;2022-11-20T04:17:20;52.75;;;20.92;;
40459;SDS011;26164;51.138;16.952;2022-11-20T04:19:46;51.83;;;20.80;;
40459;SDS011;26164;51.138;16.952;2022-11-20T04:22:12;62.65;;;22.02;;
40459;SDS011;26164;51.138;16.952;2022-11-20T04:24:38;56.00;;;22.00;;
40459;SDS011;26164;51.138;16.952;2022-11-20T04:27:04;51.97;;;21.17;;
40459;SDS011;26164;51.138;16.952;2022-11-20T04:29:30;52.47;;;20.85;;
40459;SDS011;26164;51.138;16.952;2022-11-20T04:31:56;56.40;;;21.55;;
40459;SDS011;26164;51.138;16.952;2022-11-20T04:34:23;53.83;;;21.00;;
40459;SDS011;26164;51.138;16.952;2022-11-20T04:36:52;55.75;;;22.02;;
40459;SDS011;26164;51.138;16.952;2022-11-20T04:39:18;50.80;;;21.27;;
40459;SDS011;26164;51.138;16.952;2022-11-20T04:41:44;58.33;;;23.23;;
40459;SDS011;26164;51.138;16.952;2022-11-20T04:44:12;57.08;;;22.45;;
40459;SDS011;26164;51.138;16.952;2022-11-20T04:46:40;54.97;;;22.50;;
40459;SDS011;26164;51.138;16.952;2022-11-20T04:49:10;52.50;;;20.83;;
40459;SDS011;26164;51.138;16.952;2022-11-20T04:51:39;49.78;;;20.95;;
40459;SDS011;26164;51.138;16.952;2022-11-20T04:54:05;51.17;;;20.55;;
40459;SDS011;26164;51.138;16.952;2022-11-20T04:56:31;49.88;;;18.95;;
40459;SDS011;26164;51.138;16.952;2022-11-20T04:58:59;46.78;;;19.65;;
40459;SDS011;26164;51.138;16.952;2022-11-20T05:01:26;48.97;;;21.25;;
40459;SDS011;26164;51.138;16.952;2022-11-20T05:03:52;53.78;;;21.23;;
40459;SDS011;26164;51.138;16.952;2022-11-20T05:06:19;50.13;;;19.50;;
40459;SDS011;26164;51.138;16.952;2022-11-20T05:08:48;49.13;;;20.30;;
40459;SDS011;26164;51.138;16.952;2022-11-20T05:11:15;56.13;;;21.38;;
40459;SDS011;26164;51.138;16.952;2022-11-20T05:13:43;49.60;;;19.73;;
40459;SDS011;26164;51.138;16.952;2022-11-20T05:16:12;51.38;;;19.35;;
40459;SDS011;26164;51.138;16.952;2022-11-20T05:18:42;52.65;;;18.92;;
40459;SDS011;26164;51.138;16.952;2022-11-20T05:21:11;51.60;;;19.38;;
40459;SDS011;26164;51.138;16.952;2022-11-20T05:23:40;50.55;;;20.50;;
40459;SDS011;26164;51.138;16.952;2022-11-20T05:26:08;61.25;;;22.38;;
40459;SDS011;26164;51.138;16.952;2022-11-20T05:28:39;48.08;;;19.30;;
40459;SDS011;26164;51.138;16.952;2022-11-20T05:31:05;52.00;;;21.27;;
40459;SDS011;26164;51.138;16.952;2022-11-20T05:33:41;54.65;;;21.33;;
40459;SDS011;26164;51.138;16.952;2022-11-20T05:36:08;51.25;;;19.52;;
40459;SDS011;26164;51.138;16.952;2022-11-20T05:38:35;46.70;;;18.58;;
40459;SDS011;26164;51.138;16.952;2022-11-20T05:41:11;44.90;;;18.77;;
40459;SDS011;26164;51.138;16.952;2022-11-20T05:43:42;50.20;;;19.17;;
40459;SDS011;26164;51.138;16.952;2022-11-20T05:46:09;48.70;;;19.98;;
40459;SDS011;26164;51.138;16.952;2022-11-20T05:48:41;46.90;;;19.33;;
40459;SDS011;26164;51.138;16.952;2022-11-20T05:51:09;51.55;;;19.20;;
40459;SDS011;26164;51.138;16.952;2022-11-20T05:53:36;55.28;;;20.52;;
40459;SDS011;26164;51.138;16.952;2022-11-20T05:56:06;54.70;;;20.98;;
40459;SDS011;26164;51.138;16.952;2022-11-20T05:58:38;58.03;;;23.52;;
40459;SDS011;26164;51.138;16.952;2022-11-20T06:01:10;58.70;;;22.55;;
40459;SDS011;26164;51.138;16.952;2022-11-20T06:03:51;52.55;;;21.45;;
40459;SDS011;26164;51.138;16.952;2022-11-20T06:06:21;62.55;;;23.85;;
40459;SDS011;26164;51.138;16.952;2022-11-20T06:08:51;58.55;;;24.10;;
40459;SDS011;26164;51.138;16.952;2022-11-20T06:11:25;69.60;;;26.38;;
40459;SDS011;26164;51.138;16.952;2022-11-20T06:13:56;67.78;;;24.33;;
40459;SDS011;26164;51.138;16.952;2022-11-20T06:16:25;59.50;;;23.75;;
40459;SDS011;26164;51.138;16.952;2022-11-20T06:18:57;56.53;;;22.63;;
40459;SDS011;26164;51.138;16.952;2022-11-20T06:21:24;70.78;;;25.73;;
40459;SDS011;26164;51.138;16.952;2022-11-20T06:24:37;69.47;;;26.20;;
40459;SDS011;26164;51.138;16.952;2022-11-20T06:27:11;70.72;;;25.40;;
40459;SDS011;26164;51.138;16.952;2022-11-20T06:29:38;60.00;;;24.67;;
40459;SDS011;26164;51.138;16.952;2022-11-20T06:32:32;63.42;;;24.55;;
40459;SDS011;26164;51.138;16.952;2022-11-20T06:42:24;70.63;;;25.98;;
40459;SDS011;26164;51.138;16.952;2022-11-20T06:45:05;66.35;;;26.17;;
40459;SDS011;26164;51.138;16.952;2022-11-20T06:48:05;61.67;;;24.85;;
40459;SDS011;26164;51.138;16.952;2022-11-20T06:51:09;68.65;;;25.00;;
40459;SDS011;26164;51.138;16.952;2022-11-20T06:53:40;74.32;;;27.65;;
40459;SDS011;26164;51.138;16.952;2022-11-20T06:56:08;79.07;;;32.20;;
40459;SDS011;26164;51.138;16.952;2022-11-20T06:59:21;78.85;;;31.40;;
40459;SDS011;26164;51.138;16.952;2022-11-20T07:07:45;88.72;;;35.25;;
40459;SDS011;26164;51.138;16.952;2022-11-20T13:47:34;27.63;;;14.10;;
40459;SDS011;26164;51.138;16.952;2022-11-20T13:51:20;26.33;;;13.30;;
40459;SDS011;26164;51.138;16.952;2022-11-20T14:04:56;26.10;;;14.23;;
40459;SDS011;26164;51.138;16.952;2022-11-20T14:08:53;26.33;;;12.23;;
40459;SDS011;26164;51.138;16.952;2022-11-20T14:12:01;24.73;;;13.23;;
40459;SDS011;26164;51.138;16.952;2022-11-20T14:15:22;27.50;;;13.05;;
40459;SDS011;26164;51.138;16.952;2022-11-20T14:39:20;31.23;;;14.05;;
40459;SDS011;26164;51.138;16.952;2022-11-20T14:42:26;26.98;;;12.60;;
40459;SDS011;26164;51.138;16.952;2022-11-20T15:15:10;30.77;;;14.15;;
40459;SDS011;26164;51.138;16.952;2022-11-20T15:21:26;31.23;;;14.90;;
40459;SDS011;26164;51.138;16.952;2022-11-20T15:24:47;31.08;;;14.85;;
40459;SDS011;26164;51.138;16.952;2022-11-20T15:27:57;35.40;;;15.15;;
40459;SDS011;26164;51.138;16.952;2022-11-20T15:30:51;40.42;;;16.55;;
40459;SDS011;26164;51.138;16.952;2022-11-20T15:33:49;54.33;;;22.00;;
40459;SDS011;26164;51.138;16.952;2022-11-20T15:36:42;62.78;;;24.88;;
40459;SDS011;26164;51.138;16.952;2022-11-20T15:39:53;53.83;;;21.92;;
40459;SDS011;26164;51.138;16.952;2022-11-20T15:42:58;50.38;;;20.08;;
40459;SDS011;26164;51.138;16.952;2022-11-20T15:46:43;47.45;;;18.77;;
40459;SDS011;26164;51.138;16.952;2022-11-20T15:53:50;44.78;;;19.55;;
40459;SDS011;26164;51.138;16.952;2022-11-20T15:56:25;57.55;;;22.92;;
40459;SDS011;26164;51.138;16.952;2022-11-20T16:04:10;68.22;;;26.52;;
40459;SDS011;26164;51.138;16.952;2022-11-20T16:07:15;64.30;;;26.95;;
40459;SDS011;26164;51.138;16.952;2022-11-20T16:25:11;48.97;;;21.08;;
40459;SDS011;26164;51.138;16.952;2022-11-20T16:58:36;66.20;;;28.05;;
40459;SDS011;26164;51.138;16.952;2022-11-20T17:11:05;64.13;;;25.73;;
40459;SDS011;26164;51.138;16.952;2022-11-20T17:14:04;66.88;;;26.55;;
40459;SDS011;26164;51.138;16.952;2022-11-20T17:21:05;81.53;;;29.13;;
40459;SDS011;26164;51.138;16.952;2022-11-20T17:42:46;70.45;;;27.10;;
40459;SDS011;26164;51.138;16.952;2022-11-20T17:45:27;76.97;;;29.48;;
40459;SDS011;26164;51.138;16.952;2022-11-20T18:15:24;72.07;;;27.17;;
40459;SDS011;26164;51.138;16.952;2022-11-20T18:18:15;64.25;;;26.17;;
40459;SDS011;26164;51.138;16.952;2022-11-20T18:20:42;66.68;;;27.08;;
40459;SDS011;26164;51.138;16.952;2022-11-20T18:23:34;72.32;;;29.15;;
40459;SDS011;26164;51.138;16.952;2022-11-20T18:26:17;70.88;;;27.83;;
40459;SDS011;26164;51.138;16.952;2022-11-20T18:29:37;70.32;;;26.67;;
40459;SDS011;26164;51.138;16.952;2022-11-20T18:32:20;69.03;;;27.92;;
40459;SDS011;26164;51.138;16.952;2022-11-20T18:34:58;74.07;;;30.52;;
40459;SDS011;26164;51.138;16.952;2022-11-20T18:37:41;72.75;;;28.50;;
40459;SDS011;26164;51.138;16.952;2022-11-20T18:40:49;71.63;;;27.48;;
40459;SDS011;26164;51.138;16.952;2022-11-20T18:43:16;73.90;;;29.83;;
40459;SDS011;26164;51.138;16.952;2022-11-20T18:46:02;76.90;;;29.88;;
40459;SDS011;26164;51.138;16.952;2022-11-20T18:48:31;66.78;;;28.58;;
40459;SDS011;26164;51.138;16.952;2022-11-20T18:51:07;72.82;;;30.33;;
40459;SDS011;26164;51.138;16.952;2022-11-20T18:53:38;75.97;;;29.85;;
40459;SDS011;26164;51.138;16.952;2022-11-20T18:56:06;73.43;;;28.30;;
40459;SDS011;26164;51.138;16.952;2022-11-20T18:58:34;72.10;;;28.50;;
40459;SDS011;26164;51.138;16.952;2022-11-20T19:01:05;76.00;;;30.08;;
40459;SDS011;26164;51.138;16.952;2022-11-20T19:03:36;72.60;;;28.08;;
40459;SDS011;26164;51.138;16.952;2022-11-20T19:06:11;72.50;;;29.48;;
40459;SDS011;26164;51.138;16.952;2022-11-20T19:08:41;70.18;;;27.48;;
40459;SDS011;26164;51.138;16.952;2022-11-20T19:11:07;71.15;;;28.27;;
40459;SDS011;26164;51.138;16.952;2022-11-20T19:13:38;76.20;;;30.50;;
40459;SDS011;26164;51.138;16.952;2022-11-20T19:16:07;67.78;;;27.38;;
40459;SDS011;26164;51.138;16.952;2022-11-20T19:18:51;66.75;;;25.52;;
40459;SDS011;26164;51.138;16.952;2022-11-20T19:21:22;73.57;;;29.15;;
40459;SDS011;26164;51.138;16.952;2022-11-20T19:24:09;70.88;;;30.17;;
40459;SDS011;26164;51.138;16.952;2022-11-20T19:26:42;63.58;;;27.90;;
40459;SDS011;26164;51.138;16.952;2022-11-20T19:29:51;69.57;;;26.20;;
40459;SDS011;26164;51.138;16.952;2022-11-20T19:32:56;67.18;;;26.05;;
40459;SDS011;26164;51.138;16.952;2022-11-20T19:39:26;75.00;;;30.20;;
40459;SDS011;26164;51.138;16.952;2022-11-20T19:42:33;72.97;;;26.83;;
40459;SDS011;26164;51.138;16.952;2022-11-20T19:45:53;61.22;;;24.90;;
40459;SDS011;26164;51.138;16.952;2022-11-20T19:49:52;67.35;;;27.58;;
40459;SDS011;26164;51.138;16.952;2022-11-20T19:56:48;70.00;;;27.35;;
40459;SDS011;26164;51.138;16.952;2022-11-20T20:00:01;69.97;;;27.15;;
40459;SDS011;26164;51.138;16.952;2022-11-20T20:07:12;65.63;;;25.10;;
40459;SDS011;26164;51.138;16.952;2022-11-20T20:10:06;65.28;;;26.65;;
40459;SDS011;26164;51.138;16.952;2022-11-20T20:13:14;71.18;;;27.30;;
40459;SDS011;26164;51.138;16.952;2022-11-20T20:16:37;75.32;;;29.00;;
40459;SDS011;26164;51.138;16.952;2022-11-20T20:19:59;74.50;;;29.00;;
40459;SDS011;26164;51.138;16.952;2022-11-20T20:22:48;70.95;;;27.30;;
40459;SDS011;26164;51.138;16.952;2022-11-20T20:26:53;74.15;;;27.08;;
40459;SDS011;26164;51.138;16.952;2022-11-20T20:30:10;64.22;;;24.80;;
